Time;durP1;ratioP1;P1;durP2;ratioP2;P2;SDS_P1;SDS_P2;PMS_P1;PMS_P2;Temp;Humidity;BMP_temperature;BMP_pressure;BME280_temperature;BME280_humidity;BME280_pressure;Samples;Min_cycle;Max_cycle;Signal;HPM_P1;HPM_P2
2024/01/15 00:02:17;;;;;;;10.07;1.37;;;;;;;11.37;44.22;100481.91;5050429;28;20131;-75
2024/01/15 00:04:43;;;;;;;10.30;0.80;;;;;;;12.04;42.92;100477.09;5050923;28;20400;-75
2024/01/15 00:07:09;;;;;;;7.90;1.57;;;;;;;11.08;44.27;100482.44;5051137;28;20036;-75
2024/01/15 00:09:35;;;;;;;6.97;0.87;;;;;;;11.63;44.00;100478.78;5050880;28;20036;-75
2024/01/15 00:12:01;;;;;;;6.70;0.60;;;;;;;11.74;43.29;100475.09;5053469;28;20044;-75
2024/01/15 00:14:27;;;;;;;9.90;1.10;;;;;;;11.99;42.91;100472.84;5053610;28;20056;-75
2024/01/15 00:16:54;;;;;;;4.83;0.80;;;;;;;11.89;43.27;100466.91;5053415;28;20067;-75
2024/01/15 00:19:20;;;;;;;10.37;1.33;;;;;;;11.31;44.06;100467.19;5054422;28;20029;-75
2024/01/15 00:21:46;;;;;;;15.00;1.83;;;;;;;11.35;44.63;100474.09;5052247;28;20116;-75
2024/01/15 00:24:12;;;;;;;2.57;0.50;;;;;;;11.68;43.99;100463.00;5053454;28;20112;-75
2024/01/15 00:26:37;;;;;;;4.40;0.83;;;;;;;11.62;43.75;100453.50;5053457;28;20028;-75
2024/01/15 00:29:03;;;;;;;3.13;0.90;;;;;;;11.14;45.27;100450.94;5052777;28;20032;-75
2024/01/15 00:31:31;;;;;;;3.93;0.83;;;;;;;11.52;44.74;100444.09;5053622;28;20392;-74
2024/01/15 00:33:57;;;;;;;2.90;0.53;;;;;;;11.01;45.72;100443.31;5054873;28;20033;-75
2024/01/15 00:36:23;;;;;;;1.53;0.50;;;;;;;11.24;44.48;100446.38;5052736;28;20540;-75
2024/01/15 00:38:48;;;;;;;8.90;0.87;;;;;;;11.64;43.68;100436.00;5053235;28;20164;-75
2024/01/15 00:41:14;;;;;;;2.93;0.67;;;;;;;11.71;42.83;100432.34;5053689;28;20025;-75
2024/01/15 00:43:40;;;;;;;7.87;1.80;;;;;;;11.29;43.32;100440.19;5051634;28;20447;-75
2024/01/15 00:46:05;;;;;;;3.97;0.70;;;;;;;10.68;43.91;100437.78;5052696;28;20049;-75
2024/01/15 00:48:31;;;;;;;12.23;1.93;;;;;;;10.89;44.12;100425.22;5052873;28;20404;-75
2024/01/15 00:50:56;;;;;;;4.90;0.60;;;;;;;10.90;43.76;100431.34;5052234;28;20032;-75
2024/01/15 00:53:22;;;;;;;2.27;1.33;;;;;;;11.65;42.50;100431.63;5054415;28;20435;-75
2024/01/15 00:55:50;;;;;;;5.97;1.20;;;;;;;11.42;43.15;100434.72;5049535;28;20038;-75
2024/01/15 00:58:16;;;;;;;3.27;1.23;;;;;;;11.05;42.87;100430.19;5035980;28;20078;-75
2024/01/15 01:00:41;;;;;;;8.07;1.10;;;;;;;11.26;43.45;100419.31;5052910;28;20021;-74
2024/01/15 01:03:07;;;;;;;15.37;2.07;;;;;;;10.85;44.03;100428.78;5053343;28;20444;-75
2024/01/15 01:05:33;;;;;;;7.77;1.43;;;;;;;11.43;43.72;100424.22;5051567;28;20021;-74
2024/01/15 01:07:59;;;;;;;8.43;1.20;;;;;;;11.24;43.43;100423.72;5052818;28;20116;-74
2024/01/15 01:10:24;;;;;;;7.30;0.80;;;;;;;9.97;46.26;100431.00;5052558;28;20119;-75
2024/01/15 01:12:49;;;;;;;8.03;0.47;;;;;;;10.02;46.66;100425.72;5052824;28;20112;-74
2024/01/15 01:15:15;;;;;;;1.30;0.60;;;;;;;10.76;43.87;100419.34;5054196;28;20025;-75
2024/01/15 01:17:40;;;;;;;6.23;1.33;;;;;;;10.37;45.26;100420.88;5052275;28;20032;-75
2024/01/15 01:20:08;;;;;;;3.10;0.80;;;;;;;10.19;45.67;100413.28;5051507;28;20032;-75
2024/01/15 01:22:33;;;;;;;8.97;1.10;;;;;;;10.45;44.49;100419.00;5048967;28;20022;-75
2024/01/15 01:24:59;;;;;;;14.00;1.10;;;;;;;10.52;44.20;100421.50;5043270;28;20033;-75
2024/01/15 01:27:24;;;;;;;10.83;0.83;;;;;;;10.81;43.27;100414.03;5052657;28;20029;-75
2024/01/15 01:29:50;;;;;;;15.07;1.57;;;;;;;10.67;44.37;100420.38;5053142;28;20029;-75
2024/01/15 01:32:15;;;;;;;6.47;1.60;;;;;;;10.84;44.01;100414.00;5052103;28;20485;-75
2024/01/15 01:34:42;;;;;;;8.07;1.10;;;;;;;10.11;45.37;100415.13;5053348;28;20021;-75
2024/01/15 01:37:08;;;;;;;9.10;0.87;;;;;;;10.04;46.25;100417.84;5049085;28;20534;-75
2024/01/15 01:39:33;;;;;;;4.87;0.60;;;;;;;10.31;45.83;100412.19;5041325;28;20029;-74
2024/01/15 01:41:59;;;;;;;4.17;0.90;;;;;;;9.65;47.04;100421.84;5052273;28;20385;-75
2024/01/15 01:44:24;;;;;;;4.70;0.50;;;;;;;10.32;46.23;100418.31;5048782;28;20025;-75
2024/01/15 01:46:49;;;;;;;7.50;1.20;;;;;;;10.43;45.92;100421.66;5037316;28;20493;-75
2024/01/15 01:49:16;;;;;;;1.17;0.40;;;;;;;10.38;46.83;100412.16;5052039;28;20036;-75
2024/01/15 01:51:41;;;;;;;8.23;0.57;;;;;;;9.89;47.16;100411.97;5051231;28;20469;-74
2024/01/15 01:54:09;;;;;;;7.37;1.27;;;;;;;10.84;45.37;100406.16;5052216;28;20071;-75
2024/01/15 01:56:35;;;;;;;4.23;1.33;;;;;;;10.64;46.50;100412.56;5051623;28;20491;-75
2024/01/15 01:59:02;;;;;;;2.87;0.70;;;;;;;10.85;45.89;100407.88;5033072;28;20034;-75
2024/01/15 02:01:31;;;;;;;5.53;0.60;;;;;;;9.72;48.68;100417.41;5051685;28;20063;-75
2024/01/15 02:03:57;;;;;;;2.53;1.13;;;;;;;9.60;48.81;100418.44;5048656;28;20397;-75
2024/01/15 02:06:24;;;;;;;7.37;0.53;;;;;;;9.43;48.95;100415.16;5048815;28;20409;-75
2024/01/15 02:08:50;;;;;;;4.20;0.60;;;;;;;9.72;47.94;100403.50;5047960;28;20708;-75
2024/01/15 02:11:15;;;;;;;1.23;0.80;;;;;;;10.16;46.38;100412.44;5052772;28;20142;-75
2024/01/15 02:13:41;;;;;;;6.33;0.60;;;;;;;11.14;44.61;100393.38;5051061;28;20141;-75
2024/01/15 02:16:06;;;;;;;2.50;0.40;;;;;;;9.97;47.40;100398.78;5052376;28;20040;-75
2024/01/15 02:18:46;;;;;;;3.00;0.63;;;;;;;10.11;47.61;100396.84;5050736;28;20033;-76
2024/01/15 02:21:12;;;;;;;4.87;0.73;;;;;;;9.71;48.29;100401.75;5050613;28;20029;-75
2024/01/15 02:23:38;;;;;;;3.53;0.93;;;;;;;10.54;46.47;100397.94;5050987;28;20020;-75
2024/01/15 02:26:05;;;;;;;4.23;0.47;;;;;;;9.60;48.51;100402.78;5042325;28;20478;-75
2024/01/15 02:28:32;;;;;;;3.57;0.57;;;;;;;9.41;48.74;100398.66;5050418;28;20115;-75
2024/01/15 02:30:57;;;;;;;7.23;0.60;;;;;;;9.72;48.41;100387.84;5051186;28;20036;-75
2024/01/15 02:33:23;;;;;;;0.87;0.50;;;;;;;9.48;48.47;100390.75;5051334;28;20028;-75
2024/01/15 02:35:50;;;;;;;0.10;0.10;;;;;;;9.62;48.22;100393.19;5050108;28;20033;-74
2024/01/15 02:38:15;;;;;;;4.13;0.50;;;;;;;10.47;46.64;100385.88;5051239;28;20036;-74
2024/01/15 02:40:41;;;;;;;1.43;0.53;;;;;;;10.67;45.64;100375.94;5050943;28;20028;-74
2024/01/15 02:43:07;;;;;;;0.27;0.27;;;;;;;10.90;44.65;100379.88;5051838;28;20025;-75
2024/01/15 02:45:32;;;;;;;0.57;0.43;;;;;;;10.43;46.30;100381.59;5049800;28;20052;-74
2024/01/15 02:47:58;;;;;;;4.00;0.60;;;;;;;10.82;45.79;100382.63;5052048;28;20064;-74
2024/01/15 02:50:23;;;;;;;2.03;0.57;;;;;;;10.14;46.63;100382.91;5049252;28;20499;-75
2024/01/15 02:52:48;;;;;;;3.37;0.53;;;;;;;10.59;45.40;100388.28;5050392;28;20039;-75
2024/01/15 02:55:14;;;;;;;6.33;0.60;;;;;;;10.46;45.99;100378.94;5050910;28;20025;-75
2024/01/15 02:57:39;;;;;;;4.40;0.40;;;;;;;10.13;45.72;100383.78;5049147;28;20503;-75
2024/01/15 03:00:05;;;;;;;5.40;0.53;;;;;;;9.96;45.87;100384.88;5052363;28;20096;-74
2024/01/15 03:02:33;;;;;;;2.53;0.90;;;;;;;8.82;49.20;100391.50;5050077;28;20025;-74
2024/01/15 03:04:58;;;;;;;0.23;0.23;;;;;;;9.53;47.57;100397.66;5050102;28;20037;-75
2024/01/15 03:07:24;;;;;;;3.03;0.43;;;;;;;9.86;47.13;100385.88;5050664;28;20035;-75
2024/01/15 03:09:49;;;;;;;2.17;0.87;;;;;;;10.49;46.08;100368.41;5064293;28;20060;-75
2024/01/15 03:12:15;;;;;;;3.33;0.37;;;;;;;9.90;47.05;100390.19;5049883;28;20028;-75
2024/01/15 03:14:41;;;;;;;0.30;0.20;;;;;;;10.10;46.40;100383.81;5049873;28;20038;-75
2024/01/15 03:17:08;;;;;;;4.47;0.50;;;;;;;10.02;46.23;100390.00;5050654;28;20052;-75
2024/01/15 03:19:35;;;;;;;0.00;0.00;;;;;;;8.98;48.63;100385.25;5049921;28;20025;-75
2024/01/15 03:22:02;;;;;;;2.97;0.40;;;;;;;9.27;49.17;100385.78;5050465;28;20047;-75
2024/01/15 03:24:27;;;;;;;6.63;0.60;;;;;;;9.22;49.59;100385.84;5049534;28;20029;-75
2024/01/15 03:26:53;;;;;;;4.07;0.33;;;;;;;9.40;49.38;100383.91;5049886;28;20519;-75
2024/01/15 03:29:18;;;;;;;0.10;0.10;;;;;;;9.31;50.78;100380.53;5049143;28;20024;-75
2024/01/15 03:31:43;;;;;;;1.70;0.20;;;;;;;8.59;51.87;100373.47;5050304;28;20040;-75
2024/01/15 03:34:09;;;;;;;2.13;0.10;;;;;;;9.29;50.18;100373.59;5049990;28;20029;-75
2024/01/15 03:36:34;;;;;;;0.37;0.13;;;;;;;9.30;50.96;100368.38;5049178;28;20033;-75
2024/01/15 03:38:59;;;;;;;0.97;0.23;;;;;;;10.01;48.68;100351.75;5050798;28;20043;-75
2024/01/15 03:41:25;;;;;;;0.37;0.20;;;;;;;11.08;46.65;100362.13;5050128;28;20048;-75
2024/01/15 03:43:50;;;;;;;6.40;0.83;;;;;;;10.21;48.64;100374.06;5049247;28;20025;-75
2024/01/15 03:46:15;;;;;;;3.37;0.43;;;;;;;10.13;49.08;100387.22;5050570;28;20044;-75
2024/01/15 03:48:41;;;;;;;1.23;0.50;;;;;;;9.40;50.69;100386.53;5049615;28;20035;-74
2024/01/15 03:51:06;;;;;;;2.57;0.30;;;;;;;8.46;54.08;100383.13;5050166;28;20469;-75
2024/01/15 03:53:31;;;;;;;0.10;0.10;;;;;;;9.02;52.81;100388.66;5049036;28;20451;-75
2024/01/15 03:55:56;;;;;;;0.10;0.10;;;;;;;9.04;51.60;100371.28;5051356;28;20070;-75
2024/01/15 03:58:22;;;;;;;1.93;0.20;;;;;;;9.64;49.97;100372.28;5049245;28;20051;-76
2024/01/15 04:00:47;;;;;;;1.97;0.63;;;;;;;9.59;50.82;100368.84;5029799;28;20281;-75
2024/01/15 04:03:13;;;;;;;1.33;0.40;;;;;;;10.91;47.95;100350.25;5030431;28;20029;-75
2024/01/15 04:05:38;;;;;;;10.57;0.63;;;;;;;10.50;48.56;100354.47;5045349;28;20086;-75
2024/01/15 04:08:04;;;;;;;0.60;0.30;;;;;;;11.16;47.17;100360.22;5050279;28;20382;-75
2024/01/15 04:10:29;;;;;;;2.97;0.23;;;;;;;11.21;46.82;100353.16;5050917;28;20032;-76
2024/01/15 04:12:54;;;;;;;0.77;0.20;;;;;;;10.89;47.13;100346.78;5049958;28;20027;-75
2024/01/15 04:15:20;;;;;;;0.67;0.40;;;;;;;11.31;47.10;100341.59;5045885;28;20033;-75
2024/01/15 04:17:45;;;;;;;5.30;0.50;;;;;;;10.37;49.58;100337.28;5039687;28;20025;-75
2024/01/15 04:20:11;;;;;;;8.87;1.07;;;;;;;10.26;50.16;100345.25;5050069;28;20500;-75
2024/01/15 04:22:36;;;;;;;7.27;0.97;;;;;;;11.03;48.43;100338.66;5048910;28;20017;-76
2024/01/15 04:25:02;;;;;;;4.03;1.00;;;;;;;10.61;49.01;100336.84;5046362;28;20146;-75
2024/01/15 04:27:27;;;;;;;2.27;0.30;;;;;;;10.19;50.46;100347.09;5039220;28;20039;-75
2024/01/15 04:29:53;;;;;;;4.53;0.50;;;;;;;9.92;50.04;100335.34;5048248;28;20024;-75
2024/01/15 04:32:18;;;;;;;0.20;0.20;;;;;;;9.92;51.24;100344.03;5049954;28;20386;-75
2024/01/15 04:34:44;;;;;;;1.37;0.30;;;;;;;9.17;53.35;100340.69;5048498;28;20564;-75
2024/01/15 04:37:10;;;;;;;1.00;0.40;;;;;;;8.42;54.61;100344.91;5050766;28;20100;-75
2024/01/15 04:39:35;;;;;;;0.97;0.27;;;;;;;7.82;72.38;100333.25;5048970;28;20507;-75
2024/01/15 04:42:01;;;;;;;0.10;0.10;;;;;;;8.14;70.98;100332.13;5050284;28;20071;-75
2024/01/15 04:44:26;;;;;;;0.60;0.20;;;;;;;8.12;69.58;100331.31;5050965;28;20473;-75
2024/01/15 04:46:51;;;;;;;5.27;0.40;;;;;;;8.69;65.28;100337.75;5048856;28;20128;-75
2024/01/15 04:49:17;;;;;;;0.30;0.30;;;;;;;8.28;65.44;100332.03;5048717;28;20024;-75
2024/01/15 04:51:42;;;;;;;3.97;0.80;;;;;;;8.20;67.23;100339.91;5048987;28;20503;-74
2024/01/15 04:54:07;;;;;;;2.47;0.70;;;;;;;8.26;66.03;100339.00;5045714;28;20028;-75
2024/01/15 04:56:33;;;;;;;0.20;0.20;;;;;;;8.21;66.94;100345.97;5053784;28;20026;-75
2024/01/15 04:58:58;;;;;;;1.73;0.50;;;;;;;7.24;69.59;100344.81;5033403;28;20022;-75
2024/01/15 05:01:23;;;;;;;1.17;0.30;;;;;;;7.17;70.24;100333.59;5046661;28;20053;-75
2024/01/15 05:03:49;;;;;;;5.87;1.23;;;;;;;7.63;68.00;100325.53;5052020;28;20033;-75
2024/01/15 05:06:15;;;;;;;0.30;0.10;;;;;;;8.29;63.39;100324.19;5052885;28;20116;-75
2024/01/15 05:08:40;;;;;;;0.13;0.10;;;;;;;8.47;63.21;100314.53;5052401;28;20032;-75
2024/01/15 05:11:06;;;;;;;0.00;0.00;;;;;;;8.71;62.92;100307.31;5052232;28;20028;-75
2024/01/15 05:13:31;;;;;;;0.00;0.00;;;;;;;9.02;59.31;100309.59;5053613;28;20104;-74
2024/01/15 05:15:57;;;;;;;0.00;0.00;;;;;;;7.94;64.25;100311.44;5055686;28;20392;-75
2024/01/15 05:18:22;;;;;;;4.53;0.20;;;;;;;8.42;62.24;100303.25;5052039;28;20116;-75
2024/01/15 05:20:47;;;;;;;0.53;0.10;;;;;;;8.78;60.68;100306.41;5052270;28;20063;-75
2024/01/15 05:23:13;;;;;;;5.60;0.30;;;;;;;9.10;58.16;100302.56;5052722;28;20032;-76
2024/01/15 05:25:38;;;;;;;3.77;0.30;;;;;;;9.03;58.58;100306.13;5051315;28;20412;-75
2024/01/15 05:28:05;;;;;;;1.80;0.67;;;;;;;9.96;55.51;100293.50;5052092;28;20118;-75
2024/01/15 05:30:30;;;;;;;0.23;0.17;;;;;;;9.31;56.80;100317.06;5052035;28;20024;-75
2024/01/15 05:32:57;;;;;;;1.80;0.33;;;;;;;8.95;58.66;100320.09;5052771;28;20025;-76
2024/01/15 05:35:22;;;;;;;0.13;0.13;;;;;;;8.10;62.39;100313.06;5052743;28;20023;-76
2024/01/15 05:37:48;;;;;;;0.10;0.10;;;;;;;8.32;61.54;100321.59;5051615;28;20033;-74
2024/01/15 05:40:13;;;;;;;1.60;0.30;;;;;;;8.37;61.58;100325.88;5051681;28;20491;-74
2024/01/15 05:42:40;;;;;;;0.10;0.10;;;;;;;8.70;59.49;100313.44;5052218;28;20029;-73
2024/01/15 05:45:05;;;;;;;3.93;0.40;;;;;;;8.74;59.05;100322.94;5051697;28;20053;-74
2024/01/15 05:47:31;;;;;;;1.53;0.43;;;;;;;8.79;58.81;100310.72;5052759;28;20396;-74
2024/01/15 05:49:57;;;;;;;0.50;0.50;;;;;;;9.13;58.02;100310.31;5053246;28;20025;-74
2024/01/15 05:52:23;;;;;;;0.60;0.30;;;;;;;7.57;64.47;100317.78;5052673;28;20078;-74
2024/01/15 05:54:49;;;;;;;0.83;0.40;;;;;;;7.88;63.62;100320.16;5052586;28;20029;-74
2024/01/15 05:57:14;;;;;;;0.43;0.43;;;;;;;8.14;61.83;100308.72;5051362;28;20017;-75
2024/01/15 05:59:40;;;;;;;4.10;0.70;;;;;;;9.05;57.60;100293.91;5052172;28;20035;-75
2024/01/15 06:02:05;;;;;;;5.37;0.70;;;;;;;9.48;57.15;100285.53;5051130;28;20071;-75
2024/01/15 06:04:30;;;;;;;1.13;0.67;;;;;;;9.46;55.86;100292.50;5051261;28;20130;-74
2024/01/15 06:06:56;;;;;;;0.43;0.43;;;;;;;9.39;57.37;100283.06;5051012;28;20029;-75
2024/01/15 06:09:21;;;;;;;4.57;0.67;;;;;;;9.70;54.83;100282.59;5053029;28;20033;-75
2024/01/15 06:11:46;;;;;;;4.13;0.53;;;;;;;9.31;56.40;100284.03;5051293;28;20021;-75
2024/01/15 06:14:12;;;;;;;3.80;0.50;;;;;;;9.85;55.01;100282.38;5052748;28;20056;-75
2024/01/15 06:16:37;;;;;;;4.33;0.60;;;;;;;9.75;55.14;100275.56;5052054;28;20029;-75
2024/01/15 06:19:03;;;;;;;0.57;0.40;;;;;;;10.09;53.55;100264.59;5051423;28;20048;-75
2024/01/15 06:21:29;;;;;;;9.73;0.83;;;;;;;9.82;54.61;100267.63;5051973;28;20017;-75
2024/01/15 06:23:56;;;;;;;0.40;0.40;;;;;;;9.09;55.89;100285.19;5051759;28;20033;-75
2024/01/15 06:26:24;;;;;;;0.53;0.50;;;;;;;9.40;56.18;100292.63;5052250;28;20021;-75
2024/01/15 06:28:50;;;;;;;1.50;0.90;;;;;;;9.36;57.28;100298.75;5049868;28;20115;-75
2024/01/15 06:31:15;;;;;;;5.93;0.50;;;;;;;9.51;57.14;100303.75;5051266;28;20545;-75
2024/01/15 06:33:41;;;;;;;1.63;0.60;;;;;;;8.99;57.23;100313.97;5052545;28;20025;-75
2024/01/15 06:36:06;;;;;;;0.60;0.50;;;;;;;8.24;61.26;100328.59;5050823;28;20116;-75
2024/01/15 06:38:32;;;;;;;1.73;0.30;;;;;;;7.44;65.51;100332.56;5050029;28;20067;-75
2024/01/15 06:40:57;;;;;;;0.83;0.20;;;;;;;7.33;66.62;100333.50;5052781;28;20029;-75
2024/01/15 06:43:23;;;;;;;0.83;0.33;;;;;;;7.28;65.92;100318.81;5050250;28;20469;-75
2024/01/15 06:45:48;;;;;;;0.47;0.43;;;;;;;6.90;65.56;100293.81;5050811;28;20110;-74
2024/01/15 06:48:16;;;;;;;0.30;0.20;;;;;;;7.80;62.91;100272.53;5050829;28;20078;-75
2024/01/15 06:50:41;;;;;;;2.43;0.30;;;;;;;8.34;60.56;100274.69;5049875;28;20028;-75
2024/01/15 06:53:07;;;;;;;0.20;0.20;;;;;;;8.88;57.95;100289.75;5051428;28;20135;-74
2024/01/15 06:55:32;;;;;;;2.73;0.40;;;;;;;8.50;59.29;100293.66;5049726;28;20465;-74
2024/01/15 06:57:58;;;;;;;11.87;3.47;;;;;;;8.73;58.51;100297.78;5051576;28;20025;-75
2024/01/15 07:00:23;;;;;;;7.60;2.90;;;;;;;8.81;57.39;100299.41;5052022;28;20485;-75
2024/01/15 07:02:49;;;;;;;1.27;0.60;;;;;;;9.08;55.62;100301.69;5049507;28;20025;-75
2024/01/15 07:05:14;;;;;;;2.70;1.90;;;;;;;9.15;56.98;100316.41;5050652;28;20067;-75
2024/01/15 07:07:40;;;;;;;1.77;1.50;;;;;;;8.92;58.91;100320.13;5051016;28;20112;-75
2024/01/15 07:10:06;;;;;;;9.33;2.80;;;;;;;9.32;56.18;100335.28;5051021;28;20440;-75
2024/01/15 07:12:32;;;;;;;9.03;2.40;;;;;;;8.88;55.37;100331.47;5049936;28;20107;-74
2024/01/15 07:14:57;;;;;;;6.30;1.53;;;;;;;9.14;55.86;100330.31;5050739;28;20450;-75
2024/01/15 07:17:23;;;;;;;32.17;8.43;;;;;;;9.25;55.10;100325.81;5049866;28;20063;-74
2024/01/15 07:19:48;;;;;;;8.37;2.53;;;;;;;8.57;59.53;100312.69;5049628;28;20052;-75
2024/01/15 07:22:17;;;;;;;32.73;7.03;;;;;;;8.63;57.94;100305.69;5050605;28;20397;-76
2024/01/15 07:24:42;;;;;;;13.63;3.83;;;;;;;9.11;55.53;100304.28;5049850;28;20127;-75
2024/01/15 07:27:08;;;;;;;35.97;9.30;;;;;;;9.92;51.32;100299.66;5050178;28;20560;-75
2024/01/15 07:29:36;;;;;;;7.93;2.90;;;;;;;9.09;53.64;100301.66;5050445;28;20573;-75
2024/01/15 07:32:01;;;;;;;4.87;1.63;;;;;;;10.37;50.45;100288.47;5050374;28;20029;-75
2024/01/15 07:34:26;;;;;;;8.27;1.63;;;;;;;9.80;52.39;100289.41;5050513;28;20515;-75
2024/01/15 07:36:52;;;;;;;5.47;1.63;;;;;;;10.04;51.27;100282.06;5049661;28;20035;-75
2024/01/15 07:39:17;;;;;;;3.93;1.40;;;;;;;10.57;50.59;100277.69;5049050;28;20032;-75
2024/01/15 07:41:42;;;;;;;2.47;0.80;;;;;;;10.92;48.60;100283.09;5051192;28;20043;-75
2024/01/15 07:44:08;;;;;;;3.83;1.10;;;;;;;10.86;48.85;100289.31;5050684;28;20086;-75
2024/01/15 07:46:33;;;;;;;2.13;0.83;;;;;;;10.97;48.33;100289.13;5046210;28;20054;-75
2024/01/15 07:48:58;;;;;;;6.73;1.77;;;;;;;10.63;48.61;100298.50;5043444;28;20082;-75
2024/01/15 07:51:25;;;;;;;3.53;1.87;;;;;;;10.59;48.96;100296.81;5051475;28;20033;-76
2024/01/15 07:53:55;;;;;;;6.97;1.87;;;;;;;11.11;47.92;100289.69;5050512;28;20522;-75
2024/01/15 07:56:21;;;;;;;2.50;1.30;;;;;;;10.77;48.01;100294.72;5049604;28;20116;-75
2024/01/15 07:58:46;;;;;;;1.77;0.73;;;;;;;11.22;47.67;100299.06;5050159;28;20036;-75
2024/01/15 08:01:12;;;;;;;0.97;0.83;;;;;;;10.78;48.37;100304.28;5050373;28;20021;-76
2024/01/15 08:03:37;;;;;;;5.80;0.87;;;;;;;10.83;47.97;100300.69;5050053;28;20056;-75
2024/01/15 08:06:03;;;;;;;7.27;1.60;;;;;;;10.47;49.72;100297.91;5049413;28;20024;-76
2024/01/15 08:08:29;;;;;;;14.07;3.23;;;;;;;10.90;48.43;100296.22;5049910;28;20496;-76
2024/01/15 08:10:57;;;;;;;6.23;1.87;;;;;;;11.11;47.93;100294.06;5049429;28;20025;-75
2024/01/15 08:13:22;;;;;;;3.97;1.47;;;;;;;10.25;50.22;100297.38;5048380;28;20017;-75
2024/01/15 08:15:48;;;;;;;3.63;1.23;;;;;;;10.13;50.34;100302.81;5048917;28;20036;-75
2024/01/15 08:18:13;;;;;;;1.90;1.13;;;;;;;9.48;53.79;100309.03;5032571;28;20034;-75
2024/01/15 08:20:39;;;;;;;4.90;1.07;;;;;;;8.55;57.32;100310.09;5048821;28;20063;-76
2024/01/15 08:23:04;;;;;;;7.00;1.00;;;;;;;9.22;55.92;100307.63;5050061;28;20025;-75
2024/01/15 08:25:30;;;;;;;4.80;0.53;;;;;;;8.91;55.80;100302.75;5048216;28;20029;-75
2024/01/15 08:27:56;;;;;;;4.53;1.50;;;;;;;9.54;53.92;100298.47;5048801;28;20499;-75
2024/01/15 08:30:24;;;;;;;9.00;2.40;;;;;;;9.37;54.15;100301.34;5052285;28;20021;-75
2024/01/15 08:32:50;;;;;;;15.20;1.17;;;;;;;8.21;58.30;100294.75;5052874;28;20396;-74
2024/01/15 08:35:15;;;;;;;6.50;0.77;;;;;;;9.45;53.72;100298.59;5053328;28;20024;-75
2024/01/15 08:37:40;;;;;;;2.73;0.70;;;;;;;9.15;54.14;100290.31;5054786;28;20482;-75
2024/01/15 08:40:06;;;;;;;4.70;1.20;;;;;;;9.00;54.67;100304.41;5053241;28;20025;-75
2024/01/15 08:42:31;;;;;;;12.00;1.07;;;;;;;8.95;53.29;100298.38;5053753;28;20103;-74
2024/01/15 08:44:57;;;;;;;3.30;1.27;;;;;;;9.53;53.20;100301.97;5050157;28;20051;-75
2024/01/15 08:47:22;;;;;;;3.23;0.67;;;;;;;8.44;54.42;100296.28;5034092;28;20026;-76
2024/01/15 08:49:47;;;;;;;9.37;1.60;;;;;;;9.09;52.55;100303.44;5045672;28;20464;-75
2024/01/15 08:52:13;;;;;;;0.67;0.67;;;;;;;7.90;55.68;100305.44;5054061;28;20079;-75
2024/01/15 08:54:39;;;;;;;0.30;0.30;;;;;;;8.83;54.95;100299.38;5049802;28;20076;-75
2024/01/15 08:57:04;;;;;;;0.13;0.13;;;;;;;8.25;57.34;100312.06;5068380;28;20499;-75
2024/01/15 08:59:29;;;;;;;5.30;1.43;;;;;;;9.24;54.50;100324.09;5054094;28;20378;-75
2024/01/15 09:01:57;;;;;;;1.90;0.33;;;;;;;8.84;54.45;100316.75;5049261;28;20079;-75
2024/01/15 09:04:23;;;;;;;7.10;0.43;;;;;;;9.16;55.51;100323.31;5057314;28;20054;-75
2024/01/15 09:06:48;;;;;;;4.30;0.50;;;;;;;9.12;54.25;100332.06;5052761;28;20036;-75
2024/01/15 09:09:14;;;;;;;2.67;0.30;;;;;;;9.44;52.32;100343.88;5052018;28;20376;-75
2024/01/15 09:11:41;;;;;;;0.50;0.20;;;;;;;8.17;57.22;100365.94;5050529;28;20476;-75
2024/01/15 09:14:06;;;;;;;0.60;0.37;;;;;;;7.88;61.47;100358.34;5051863;28;20017;-75
2024/01/15 09:16:31;;;;;;;0.10;0.10;;;;;;;8.33;60.15;100358.88;5050205;28;20017;-75
2024/01/15 09:18:57;;;;;;;3.57;0.57;;;;;;;8.42;59.37;100350.13;5046760;28;20076;-75
2024/01/15 09:21:24;;;;;;;4.30;0.83;;;;;;;8.51;58.10;100344.88;5038034;28;20021;-75
2024/01/15 09:23:50;;;;;;;0.23;0.17;;;;;;;8.53;57.31;100348.34;5034611;28;20028;-75
2024/01/15 09:26:15;;;;;;;2.40;0.23;;;;;;;8.61;56.50;100346.53;5052909;28;20025;-75
2024/01/15 09:28:40;;;;;;;2.53;0.37;;;;;;;8.64;56.59;100346.50;5052162;28;20504;-75
2024/01/15 09:31:06;;;;;;;3.80;0.50;;;;;;;8.29;58.10;100338.97;5051936;28;20033;-75
2024/01/15 09:33:31;;;;;;;8.83;1.33;;;;;;;8.72;55.52;100332.50;5051817;28;20155;-75
2024/01/15 09:35:56;;;;;;;0.30;0.30;;;;;;;8.97;54.66;100333.09;5052463;28;20537;-75
2024/01/15 09:38:23;;;;;;;0.40;0.40;;;;;;;8.77;54.48;100334.19;5051616;28;20021;-75
2024/01/15 09:40:49;;;;;;;0.53;0.50;;;;;;;9.54;52.74;100335.00;5017665;28;20564;-75
2024/01/15 09:43:15;;;;;;;4.93;1.07;;;;;;;9.20;53.37;100330.22;5052203;28;20070;-75
2024/01/15 09:45:42;;;;;;;3.90;1.37;;;;;;;8.37;54.78;100336.31;5050324;28;20098;-75
2024/01/15 09:48:08;;;;;;;3.20;1.40;;;;;;;8.78;54.92;100328.09;5052611;28;20020;-75
2024/01/15 09:50:34;;;;;;;0.20;0.20;;;;;;;7.85;57.94;100338.41;5050815;28;20538;-76
2024/01/15 09:53:00;;;;;;;12.93;0.93;;;;;;;8.72;55.52;100319.47;5050545;28;20033;-75
2024/01/15 09:55:26;;;;;;;4.00;0.83;;;;;;;8.74;54.70;100318.59;5052394;28;20154;-75
2024/01/15 09:57:53;;;;;;;1.40;0.23;;;;;;;8.46;55.48;100325.81;5052794;28;20116;-75
2024/01/15 10:00:18;;;;;;;1.57;0.50;;;;;;;8.47;56.58;100328.41;5049981;28;20032;-75
2024/01/15 10:02:44;;;;;;;3.60;1.80;;;;;;;9.39;54.77;100324.78;5051534;28;20021;-75
2024/01/15 10:05:09;;;;;;;0.67;0.50;;;;;;;8.56;55.10;100317.03;5051908;28;20570;-76
2024/01/15 10:07:36;;;;;;;6.23;1.70;;;;;;;9.66;50.55;100328.78;5050588;28;20017;-75
2024/01/15 10:10:03;;;;;;;2.80;1.33;;;;;;;8.74;51.46;100336.84;5050995;28;20476;-75
2024/01/15 10:12:32;;;;;;;6.27;2.23;;;;;;;9.16;50.76;100342.47;5050707;28;20025;-75
2024/01/15 10:14:58;;;;;;;7.70;2.40;;;;;;;8.64;53.38;100343.00;5046106;28;20114;-75
2024/01/15 10:17:24;;;;;;;4.73;1.23;;;;;;;8.99;52.67;100347.00;5044765;28;20059;-75
2024/01/15 10:19:49;;;;;;;0.73;0.60;;;;;;;8.76;53.23;100334.22;5049803;28;20032;-75
2024/01/15 10:22:15;;;;;;;8.40;1.77;;;;;;;8.24;55.41;100354.63;5050364;28;20021;-75
2024/01/15 10:24:41;;;;;;;0.70;0.70;;;;;;;9.08;53.51;100340.81;5051436;28;20377;-75
2024/01/15 10:27:08;;;;;;;1.97;1.27;;;;;;;9.06;55.29;100350.41;5052445;28;20111;-74
2024/01/15 10:29:34;;;;;;;2.67;0.20;;;;;;;8.80;55.12;100325.47;5050387;28;20041;-74
2024/01/15 10:32:00;;;;;;;3.57;0.43;;;;;;;9.20;53.46;100345.88;5048998;28;20032;-75
2024/01/15 10:34:29;;;;;;;0.93;0.83;;;;;;;8.43;55.90;100350.09;5050276;28;20040;-75
2024/01/15 10:36:57;;;;;;;7.93;2.00;;;;;;;8.76;54.96;100348.09;5052419;28;20033;-75
2024/01/15 10:39:23;;;;;;;2.20;0.63;;;;;;;9.42;53.25;100350.81;5039199;28;20064;-75
2024/01/15 10:41:51;;;;;;;11.93;0.77;;;;;;;9.10;54.60;100355.56;5046856;28;20028;-75
2024/01/15 10:44:18;;;;;;;4.03;0.63;;;;;;;9.04;54.80;100353.03;5049872;28;20025;-75
2024/01/15 10:46:45;;;;;;;2.83;0.40;;;;;;;8.99;56.03;100353.06;5050536;28;20051;-75
2024/01/15 10:49:11;;;;;;;8.13;0.70;;;;;;;9.07;56.62;100347.78;5049198;28;20035;-75
2024/01/15 10:51:37;;;;;;;1.90;0.47;;;;;;;9.44;55.16;100339.50;5049973;28;20040;-75
2024/01/15 10:54:03;;;;;;;2.33;0.43;;;;;;;9.99;53.17;100358.72;5051295;28;20025;-75
2024/01/15 10:56:33;;;;;;;3.27;1.00;;;;;;;10.21;51.71;100347.94;5046024;28;20029;-75
2024/01/15 10:58:59;;;;;;;1.37;0.30;;;;;;;10.91;50.54;100334.56;5037659;28;20112;-75
2024/01/15 11:01:25;;;;;;;1.70;0.80;;;;;;;10.72;50.21;100338.41;5049547;28;20017;-75
2024/01/15 11:03:51;;;;;;;5.30;1.07;;;;;;;11.75;47.98;100338.91;5050454;28;20035;-75
2024/01/15 11:06:19;;;;;;;4.00;1.40;;;;;;;10.97;49.57;100339.66;5050401;28;20432;-75
2024/01/15 11:08:54;;;;;;;4.93;0.50;;;;;;;9.63;51.69;100347.94;5049904;28;20035;-75
2024/01/15 11:11:21;;;;;;;1.70;0.67;;;;;;;10.28;50.83;100349.56;5050276;28;20025;-74
2024/01/15 11:13:50;;;;;;;3.50;1.20;;;;;;;9.86;50.44;100346.72;5050108;28;20029;-75
2024/01/15 11:16:15;;;;;;;1.50;0.87;;;;;;;9.67;50.29;100346.13;5047294;28;20021;-75
2024/01/15 11:18:57;;;;;;;2.50;0.67;;;;;;;10.35;49.73;100346.00;5046272;28;20437;-75
2024/01/15 11:21:24;;;;;;;4.73;0.73;;;;;;;10.60;48.97;100349.94;5049551;28;20159;-75
2024/01/15 11:24:02;;;;;;;5.40;0.60;;;;;;;11.08;48.07;100341.22;5048399;28;20056;-75